createdAt,value
2019-04-04T00:00:01.425Z,7.44
2019-04-04T00:02:31.100Z,7.48
2019-04-04T00:04:59.486Z,7.44
2019-04-04T00:07:29.175Z,7.46
2019-04-04T00:09:58.115Z,7.48
2019-04-04T00:12:26.493Z,7.49
2019-04-04T00:14:54.880Z,7.51
2019-04-04T00:17:23.866Z,7.43
2019-04-04T00:19:52.363Z,7.44
2019-04-04T00:22:20.741Z,7.45
2019-04-04T00:24:49.131Z,7.48
2019-04-04T00:27:17.505Z,7.49
2019-04-04T00:29:46.022Z,7.49
2019-04-04T00:32:16.065Z,7.54
2019-04-04T00:34:44.444Z,7.53
2019-04-04T00:37:12.821Z,7.44
2019-04-04T00:39:41.204Z,7.54
2019-04-04T00:42:09.597Z,7.56
2019-04-04T00:44:38.006Z,7.49
2019-04-04T00:47:06.358Z,7.40
2019-04-04T00:49:35.540Z,7.37
2019-04-04T00:52:04.683Z,7.35
2019-04-04T00:54:33.058Z,7.34
2019-04-04T00:57:01.435Z,7.32
2019-04-04T00:59:29.816Z,7.32
2019-04-04T01:01:58.195Z,7.32
2019-04-04T01:04:26.576Z,7.29
2019-04-04T01:06:54.956Z,7.27
2019-04-04T01:09:23.333Z,7.20
2019-04-04T01:11:51.869Z,7.14
2019-04-04T01:14:20.270Z,7.04
2019-04-04T01:16:48.659Z,6.88
2019-04-04T01:19:19.721Z,6.83
2019-04-04T01:21:48.109Z,6.85
2019-04-04T01:24:16.500Z,6.83
2019-04-04T01:26:44.876Z,6.78
2019-04-04T01:29:13.272Z,6.76
2019-04-04T01:31:41.630Z,6.76
2019-04-04T01:34:10.004Z,6.65
2019-04-04T01:36:38.396Z,6.59
2019-04-04T01:39:07.232Z,6.54
2019-04-04T01:41:36.410Z,6.52
2019-04-04T01:44:05.633Z,6.49
2019-04-04T01:46:34.079Z,6.47
2019-04-04T01:49:02.466Z,6.51
2019-04-04T01:51:30.849Z,6.55
2019-04-04T01:54:01.034Z,6.53
2019-04-04T01:56:29.332Z,6.50
2019-04-04T01:58:57.716Z,6.43
2019-04-04T02:01:26.131Z,6.32
2019-04-04T02:03:54.535Z,6.15
2019-04-04T02:06:22.916Z,6.10
2019-04-04T02:08:51.298Z,6.08
2019-04-04T02:11:19.674Z,6.11
2019-04-04T02:13:48.072Z,6.17
2019-04-04T02:16:16.904Z,6.17
2019-04-04T02:18:45.903Z,6.13
2019-04-04T02:21:14.285Z,6.09
2019-04-04T02:23:42.679Z,6.04
2019-04-04T02:26:11.057Z,5.97
2019-04-04T02:28:40.022Z,5.91
2019-04-04T02:31:09.368Z,5.89
2019-04-04T02:33:37.753Z,5.88
2019-04-04T02:36:06.139Z,5.74
2019-04-04T02:38:34.518Z,5.74
2019-04-04T02:41:02.912Z,5.73
2019-04-04T02:43:31.391Z,5.78
2019-04-04T02:45:59.769Z,5.84
2019-04-04T02:48:28.178Z,5.84
2019-04-04T02:50:56.714Z,5.83
2019-04-04T02:53:25.041Z,5.81
2019-04-04T02:55:53.435Z,5.78
2019-04-04T02:58:21.894Z,5.82
2019-04-04T03:00:50.283Z,5.85
2019-04-04T03:03:18.671Z,5.81
2019-04-04T03:05:50.954Z,5.78
2019-04-04T03:08:17.199Z,5.77
2019-04-04T03:10:48.226Z,5.66
2019-04-04T03:13:15.715Z,5.55
2019-04-04T03:15:47.167Z,5.54
2019-04-04T03:18:14.240Z,5.53
2019-04-04T03:20:42.639Z,5.50
2019-04-04T03:23:11.143Z,5.46
2019-04-04T03:25:39.527Z,5.43
2019-04-04T03:28:08.257Z,5.41
2019-04-04T03:30:36.661Z,5.38
2019-04-04T03:33:05.038Z,5.35
2019-04-04T03:35:33.463Z,5.39
2019-04-04T03:38:01.824Z,5.43
2019-04-04T03:40:30.208Z,5.44
2019-04-04T03:42:58.632Z,5.43
2019-04-04T03:45:27.624Z,5.39
2019-04-04T03:47:56.118Z,5.38
2019-04-04T03:50:29.047Z,5.35
2019-04-04T03:52:54.654Z,5.34
2019-04-04T03:55:23.057Z,5.33
2019-04-04T03:57:51.868Z,5.35
2019-04-04T04:00:29.752Z,5.37
2019-04-04T04:02:58.477Z,5.35
2019-04-04T04:05:34.554Z,5.36
2019-04-04T04:08:01.330Z,5.33
2019-04-04T04:10:33.512Z,5.32
2019-04-04T04:13:00.871Z,5.31
2019-04-04T04:15:30.492Z,5.33
2019-04-04T04:17:59.047Z,5.34
2019-04-04T04:20:27.594Z,5.37
2019-04-04T04:22:55.992Z,5.38
2019-04-04T04:25:24.393Z,5.36
2019-04-04T04:27:52.798Z,5.37
2019-04-04T04:30:21.212Z,5.34
2019-04-04T04:32:55.800Z,5.36
2019-04-04T04:35:22.678Z,5.33
2019-04-04T04:37:53.422Z,5.32
2019-04-04T04:40:21.214Z,5.33
2019-04-04T04:42:49.676Z,5.34
2019-04-04T04:45:18.093Z,5.32
2019-04-04T04:47:46.486Z,5.36
2019-04-04T04:50:14.942Z,5.35
2019-04-04T04:52:46.326Z,5.39
2019-04-04T04:55:13.514Z,5.40
2019-04-04T04:57:41.923Z,5.42
2019-04-04T05:00:10.720Z,5.42
2019-04-04T05:02:39.066Z,5.38
2019-04-04T05:05:07.535Z,5.39
2019-04-04T05:07:38.458Z,5.36
2019-04-04T05:10:07.718Z,5.36
2019-04-04T05:12:36.122Z,5.37
2019-04-04T05:15:06.989Z,5.36
2019-04-04T05:17:35.389Z,5.38
2019-04-04T05:20:07.685Z,5.38
2019-04-04T05:22:36.091Z,5.37
2019-04-04T05:25:08.240Z,5.38
2019-04-04T05:27:37.349Z,5.41
2019-04-04T05:30:08.333Z,5.57
2019-04-04T05:32:36.709Z,5.62
2019-04-04T05:35:06.812Z,5.61
2019-04-04T05:37:37.974Z,5.69
2019-04-04T05:40:06.853Z,5.78
2019-04-04T05:42:35.295Z,5.70
2019-04-04T05:45:06.003Z,5.81
2019-04-04T05:47:34.397Z,5.80
2019-04-04T05:50:02.985Z,5.80
2019-04-04T05:52:32.693Z,5.82
2019-04-04T05:55:01.442Z,5.82
2019-04-04T05:57:29.853Z,5.76
2019-04-04T05:59:58.245Z,5.85
2019-04-04T06:02:26.620Z,5.89
2019-04-04T06:04:55.505Z,5.87
2019-04-04T06:07:24.005Z,5.93
2019-04-04T06:09:52.385Z,5.98
2019-04-04T06:12:20.795Z,6.01
2019-04-04T06:14:49.180Z,6.14
2019-04-04T06:17:17.566Z,6.32
2019-04-04T06:19:45.953Z,6.53
2019-04-04T06:22:14.342Z,6.67
2019-04-04T06:24:42.729Z,6.59
2019-04-04T06:27:11.119Z,6.52
2019-04-04T06:29:39.501Z,6.61
2019-04-04T06:32:07.920Z,6.49
2019-04-04T06:34:36.306Z,6.39
2019-04-04T06:37:04.698Z,6.40
2019-04-04T06:39:33.085Z,6.50
2019-04-04T06:42:03.260Z,6.66
2019-04-04T06:44:31.615Z,6.73
2019-04-04T06:47:02.021Z,6.67
2019-04-04T06:49:30.132Z,6.81
2019-04-04T06:51:58.584Z,6.99
2019-04-04T06:54:26.989Z,7.21
2019-04-04T06:56:55.360Z,7.52
2019-04-04T06:59:23.811Z,7.64
2019-04-04T07:01:52.648Z,7.83
2019-04-04T07:04:21.041Z,7.83
2019-04-04T07:06:49.449Z,7.88
2019-04-04T07:09:19.015Z,7.79
2019-04-04T07:11:47.706Z,7.83
2019-04-04T07:14:16.113Z,7.82
2019-04-04T07:16:44.523Z,7.70
2019-04-04T07:19:15.093Z,7.68
2019-04-04T07:21:43.574Z,7.47
2019-04-04T07:24:11.961Z,7.49
2019-04-04T07:26:40.350Z,7.61
2019-04-04T07:29:08.738Z,7.68
2019-04-04T07:31:38.377Z,7.75
2019-04-04T07:34:07.026Z,7.83
2019-04-04T07:36:35.418Z,7.89
2019-04-04T07:39:04.967Z,7.91
2019-04-04T07:41:33.351Z,7.92
2019-04-04T07:44:01.749Z,7.95
2019-04-04T07:46:30.127Z,8.04
2019-04-04T07:48:58.523Z,8.12
2019-04-04T07:51:28.122Z,8.20
2019-04-04T07:53:57.043Z,8.29
2019-04-04T07:56:25.424Z,8.41
2019-04-04T07:58:53.957Z,8.56
2019-04-04T08:01:22.333Z,8.69
2019-04-04T08:03:50.722Z,8.80
2019-04-04T08:06:19.114Z,8.87
2019-04-04T08:08:47.538Z,8.97
2019-04-04T08:11:15.932Z,9.08
2019-04-04T08:13:44.355Z,9.18
2019-04-04T08:16:12.774Z,9.39
2019-04-04T08:18:41.182Z,9.48
2019-04-04T08:21:09.569Z,9.61
2019-04-04T08:23:37.946Z,9.74
2019-04-04T08:26:06.426Z,9.88
2019-04-04T08:28:34.806Z,10.03
2019-04-04T08:31:03.285Z,10.26
2019-04-04T08:33:31.681Z,10.42
2019-04-04T08:36:05.845Z,10.46
2019-04-04T08:38:30.249Z,10.57
2019-04-04T08:40:58.678Z,10.72
2019-04-04T08:43:27.104Z,10.83
2019-04-04T08:45:55.531Z,10.89
2019-04-04T08:48:23.959Z,10.96
2019-04-04T08:50:52.329Z,11.10
2019-04-04T08:53:20.787Z,11.25
2019-04-04T08:55:49.184Z,11.30
2019-04-04T08:58:17.605Z,11.31
2019-04-04T09:00:46.051Z,11.45
2019-04-04T09:03:14.523Z,11.51
2019-04-04T09:05:42.871Z,11.72
2019-04-04T09:08:11.285Z,11.86
2019-04-04T09:10:39.697Z,11.84
2019-04-04T09:13:08.091Z,11.98
2019-04-04T09:15:36.559Z,12.36
2019-04-04T09:18:05.082Z,12.53
2019-04-04T09:20:33.490Z,12.80
2019-04-04T09:23:01.875Z,12.97
2019-04-04T09:25:30.276Z,13.14
2019-04-04T09:27:58.666Z,13.31
2019-04-04T09:30:27.185Z,13.33
2019-04-04T09:32:55.580Z,13.34
2019-04-04T09:35:23.977Z,13.48
2019-04-04T09:37:52.375Z,13.57
2019-04-04T09:40:20.793Z,14.00
2019-04-04T09:42:49.186Z,14.15
2019-04-04T09:45:18.052Z,14.34
2019-04-04T09:47:46.435Z,14.64
2019-04-04T09:50:15.280Z,14.77
2019-04-04T09:52:43.710Z,14.77
2019-04-04T09:55:12.246Z,14.75
2019-04-04T09:57:40.663Z,14.81
2019-04-04T10:00:14.841Z,14.90
2019-04-04T10:02:43.331Z,15.04
2019-04-04T10:05:12.179Z,15.04
2019-04-04T10:07:40.593Z,15.07
2019-04-04T10:10:09.720Z,15.20
2019-04-04T10:12:38.173Z,15.35
2019-04-04T10:15:08.445Z,15.37
2019-04-04T10:17:36.919Z,15.45
2019-04-04T10:20:07.044Z,15.47
2019-04-04T10:22:35.450Z,15.51
2019-04-04T10:25:04.605Z,15.59
2019-04-04T10:27:32.995Z,15.64
2019-04-04T10:30:01.379Z,15.70
2019-04-04T10:32:29.798Z,15.70
2019-04-04T10:34:58.195Z,15.80
2019-04-04T10:37:26.671Z,15.81
2019-04-04T10:39:55.056Z,15.86
2019-04-04T10:42:23.473Z,15.90
2019-04-04T10:44:51.892Z,16.04
2019-04-04T10:47:20.544Z,16.26
2019-04-04T10:49:48.991Z,16.50
2019-04-04T10:52:17.317Z,16.64
2019-04-04T10:54:46.704Z,16.70
2019-04-04T10:57:15.094Z,16.68
2019-04-04T10:59:43.488Z,16.70
2019-04-04T11:02:11.946Z,16.74
2019-04-04T11:04:40.325Z,16.81
2019-04-04T11:07:08.723Z,16.86
2019-04-04T11:09:42.255Z,16.89
2019-04-04T11:12:07.267Z,16.91
2019-04-04T11:14:35.658Z,16.94
2019-04-04T11:17:04.112Z,16.95
2019-04-04T11:19:32.516Z,16.94
2019-04-04T11:22:00.908Z,16.99
2019-04-04T11:24:29.297Z,17.06
2019-04-04T11:26:57.681Z,17.15
2019-04-04T11:29:26.100Z,17.27
2019-04-04T11:31:54.486Z,17.38
2019-04-04T11:34:22.974Z,17.51
2019-04-04T11:36:51.363Z,17.63
2019-04-04T11:39:19.752Z,17.70
2019-04-04T11:41:48.219Z,17.76
2019-04-04T11:44:16.632Z,17.72
2019-04-04T11:46:45.223Z,17.75
2019-04-04T11:49:13.729Z,17.74
2019-04-04T11:51:42.134Z,17.76
2019-04-04T11:54:10.668Z,17.76
2019-04-04T11:56:39.069Z,17.83
2019-04-04T11:59:08.302Z,17.90
2019-04-04T12:01:40.993Z,17.98
2019-04-04T12:04:09.449Z,18.00
2019-04-04T12:06:37.832Z,18.02
2019-04-04T12:09:07.727Z,18.05
2019-04-04T12:11:36.248Z,18.19
2019-04-04T12:14:05.383Z,18.35
2019-04-04T12:16:34.683Z,18.37
2019-04-04T12:19:03.106Z,18.37
2019-04-04T12:21:31.509Z,18.22
2019-04-04T12:23:59.969Z,18.09
2019-04-04T12:26:28.365Z,17.88
2019-04-04T12:28:56.997Z,17.88
2019-04-04T12:31:25.386Z,17.80
2019-04-04T12:33:53.879Z,17.72
2019-04-04T12:36:24.913Z,17.67
2019-04-04T12:38:52.389Z,17.66
2019-04-04T12:41:20.787Z,17.62
2019-04-04T12:43:49.253Z,17.56
2019-04-04T12:46:17.640Z,17.52
2019-04-04T12:48:46.050Z,17.52
2019-04-04T12:51:14.436Z,17.52
2019-04-04T12:53:42.835Z,17.53
2019-04-04T12:56:11.215Z,17.55
2019-04-04T12:58:39.619Z,17.54
2019-04-04T13:01:07.999Z,17.50
2019-04-04T13:03:36.428Z,17.44
2019-04-04T13:06:04.937Z,17.38
2019-04-04T13:08:33.333Z,17.36
2019-04-04T13:11:01.786Z,17.36
2019-04-04T13:13:30.184Z,17.37
2019-04-04T13:15:58.592Z,17.36
2019-04-04T13:18:26.979Z,17.41
2019-04-04T13:20:55.442Z,17.41
2019-04-04T13:23:23.845Z,17.45
2019-04-04T13:25:52.240Z,17.45
2019-04-04T13:28:20.732Z,17.43
2019-04-04T13:30:49.189Z,17.41
2019-04-04T13:33:17.636Z,17.41
2019-04-04T13:35:46.026Z,17.39
2019-04-04T13:38:14.397Z,17.38
2019-04-04T13:40:45.734Z,17.37
2019-04-04T13:43:12.941Z,17.36
2019-04-04T13:45:41.328Z,17.34
2019-04-04T13:48:10.684Z,17.37
2019-04-04T13:50:39.876Z,17.38
2019-04-04T13:53:08.256Z,17.40
2019-04-04T13:55:39.211Z,17.45
2019-04-04T13:58:11.097Z,17.50
2019-04-04T14:00:40.971Z,17.56
2019-04-04T14:03:10.702Z,17.65
2019-04-04T14:05:39.903Z,17.69
2019-04-04T14:08:10.007Z,17.69
2019-04-04T14:10:39.415Z,17.73
2019-04-04T14:13:07.794Z,17.82
2019-04-04T14:15:36.270Z,17.93
2019-04-04T14:18:08.450Z,18.04
2019-04-04T14:20:37.080Z,18.15
2019-04-04T14:23:07.515Z,18.15
2019-04-04T14:25:39.697Z,18.13
2019-04-04T14:28:08.642Z,18.11
2019-04-04T14:30:37.043Z,18.09
2019-04-04T14:33:05.438Z,18.13
2019-04-04T14:35:34.900Z,18.14
2019-04-04T14:38:06.875Z,18.13
2019-04-04T14:40:35.593Z,18.11
2019-04-04T14:43:04.277Z,18.00
2019-04-04T14:45:35.868Z,17.83
2019-04-04T14:48:10.965Z,17.73
2019-04-04T14:50:40.804Z,17.63
2019-04-04T14:53:12.511Z,17.63
2019-04-04T14:55:41.020Z,17.62
2019-04-04T14:58:09.419Z,17.59
2019-04-04T15:00:37.874Z,17.51
2019-04-04T15:03:06.275Z,17.49
2019-04-04T15:05:39.867Z,17.43
2019-04-04T15:08:13.439Z,16.72
2019-04-04T15:10:41.976Z,17.31
2019-04-04T15:13:10.385Z,17.30
2019-04-04T15:15:41.836Z,17.32
2019-04-04T15:18:10.219Z,17.32
2019-04-04T15:20:38.625Z,17.33
2019-04-04T15:23:07.019Z,17.33
2019-04-04T15:25:35.413Z,17.23
2019-04-04T15:28:03.881Z,16.77
2019-04-04T15:30:32.291Z,17.08
2019-04-04T15:33:02.668Z,16.98
2019-04-04T15:35:30.849Z,16.89
2019-04-04T15:37:59.242Z,16.81
2019-04-04T15:40:27.667Z,16.65
2019-04-04T15:42:56.060Z,16.46
2019-04-04T15:45:24.521Z,16.19
2019-04-04T15:47:53.009Z,15.81
2019-04-04T15:50:21.475Z,15.33
2019-04-04T15:52:49.968Z,14.91
2019-04-04T15:55:18.360Z,14.60
2019-04-04T15:57:46.840Z,14.43
2019-04-04T16:00:15.606Z,14.25
2019-04-04T16:02:44.001Z,14.07
2019-04-04T16:05:12.664Z,13.84
2019-04-04T16:07:41.067Z,13.56
2019-04-04T16:10:09.793Z,13.21
2019-04-04T16:12:38.228Z,12.92
2019-04-04T16:15:07.526Z,12.78
2019-04-04T16:17:35.977Z,12.61
2019-04-04T16:20:07.644Z,12.49
2019-04-04T16:22:36.046Z,12.36
2019-04-04T16:25:06.357Z,12.25
2019-04-04T16:27:34.767Z,12.18
2019-04-04T16:30:03.714Z,11.94
2019-04-04T16:32:32.130Z,11.90
2019-04-04T16:35:00.524Z,11.87
2019-04-04T16:37:28.919Z,11.77
2019-04-04T16:40:08.185Z,11.66
2019-04-04T16:42:27.496Z,11.56
2019-04-04T16:44:55.957Z,11.38
2019-04-04T16:47:24.357Z,11.29
2019-04-04T16:49:52.802Z,11.21
2019-04-04T16:52:21.227Z,11.18
2019-04-04T16:54:49.628Z,11.09
2019-04-04T16:57:18.029Z,11.09
2019-04-04T16:59:46.421Z,11.06
2019-04-04T17:02:14.831Z,10.98
2019-04-04T17:04:43.217Z,10.92
2019-04-04T17:07:11.612Z,10.86
2019-04-04T17:09:40.032Z,10.91
2019-04-04T17:12:14.785Z,10.90
2019-04-04T17:14:38.544Z,10.86
2019-04-04T17:17:06.938Z,10.83
2019-04-04T17:19:35.485Z,10.81
2019-04-04T17:22:03.941Z,10.80
2019-04-04T17:24:32.325Z,10.78
2019-04-04T17:27:00.741Z,10.70
2019-04-04T17:29:29.135Z,10.60
2019-04-04T17:31:57.605Z,10.57
2019-04-04T17:34:26.325Z,10.54
2019-04-04T17:36:55.164Z,10.47
2019-04-04T17:39:23.536Z,10.47
2019-04-04T17:41:52.072Z,10.39
2019-04-04T17:44:20.564Z,10.30
2019-04-04T17:46:49.321Z,10.20
2019-04-04T17:49:17.996Z,10.19
2019-04-04T17:51:46.895Z,10.19
2019-04-04T17:54:15.404Z,10.19
2019-04-04T17:56:44.319Z,10.21
2019-04-04T17:59:12.730Z,10.19
2019-04-04T18:01:41.125Z,10.12
2019-04-04T18:04:09.516Z,10.09
2019-04-04T18:06:40.564Z,10.00
2019-04-04T18:09:09.272Z,9.93
2019-04-04T18:11:37.733Z,9.92
2019-04-04T18:14:06.196Z,9.87
2019-04-04T18:16:34.641Z,9.60
2019-04-04T18:19:04.188Z,9.75
2019-04-04T18:21:32.649Z,9.83
2019-04-04T18:24:01.049Z,9.82
2019-04-04T18:26:29.436Z,9.81
2019-04-04T18:28:57.853Z,9.81
2019-04-04T18:31:26.243Z,9.75
2019-04-04T18:33:54.986Z,9.71
2019-04-04T18:36:23.407Z,9.70
2019-04-04T18:38:51.822Z,8.91
2019-04-04T18:41:20.205Z,9.64
2019-04-04T18:43:48.642Z,9.56
2019-04-04T18:46:17.102Z,9.40
2019-04-04T18:48:45.535Z,9.23
2019-04-04T18:51:14.116Z,9.24
2019-04-04T18:53:42.509Z,9.23
2019-04-04T18:56:10.895Z,9.25
2019-04-04T18:58:39.297Z,9.28
2019-04-04T19:01:07.739Z,9.28
2019-04-04T19:03:36.135Z,9.23
2019-04-04T19:06:04.615Z,9.22
2019-04-04T19:08:33.029Z,9.03
2019-04-04T19:11:01.483Z,9.00
2019-04-04T19:13:38.496Z,9.00
2019-04-04T19:16:00.068Z,8.96
2019-04-04T19:18:28.558Z,8.97
2019-04-04T19:20:57.024Z,9.01
2019-04-04T19:23:25.555Z,9.02
2019-04-04T19:25:54.150Z,9.05
2019-04-04T19:28:22.683Z,9.06
2019-04-04T19:30:51.066Z,9.08
2019-04-04T19:33:19.551Z,9.12
2019-04-04T19:35:47.946Z,9.19
2019-04-04T19:38:16.336Z,9.19
2019-04-04T19:40:44.747Z,9.07
2019-04-04T19:43:18.271Z,8.98
2019-04-04T19:45:43.277Z,8.95
2019-04-04T19:48:11.738Z,8.86
2019-04-04T19:50:40.149Z,8.82
2019-04-04T19:53:08.605Z,8.81
2019-04-04T19:55:37.033Z,8.84
2019-04-04T19:58:05.411Z,8.82
2019-04-04T20:00:33.979Z,8.76
2019-04-04T20:03:02.369Z,8.70
2019-04-04T20:05:30.769Z,8.64
2019-04-04T20:07:59.398Z,8.62
2019-04-04T20:10:27.802Z,8.60
2019-04-04T20:12:56.190Z,8.59
2019-04-04T20:15:24.580Z,8.54
2019-04-04T20:17:53.006Z,8.45
2019-04-04T20:20:21.876Z,8.44
2019-04-04T20:22:50.264Z,8.46
2019-04-04T20:25:18.748Z,8.47
2019-04-04T20:27:54.677Z,8.47
2019-04-04T20:30:19.255Z,8.43
2019-04-04T20:32:47.668Z,8.45
2019-04-04T20:35:16.064Z,8.49
2019-04-04T20:37:44.486Z,8.52
2019-04-04T20:40:13.000Z,8.51
2019-04-04T20:42:41.411Z,8.52
2019-04-04T20:45:09.894Z,8.55
2019-04-04T20:47:38.396Z,8.55
2019-04-04T20:50:07.126Z,8.54
2019-04-04T20:52:35.528Z,8.46
2019-04-04T20:55:04.845Z,8.41
2019-04-04T20:57:33.232Z,8.34
2019-04-04T21:00:01.625Z,8.24
2019-04-04T21:02:30.031Z,8.09
2019-04-04T21:04:58.420Z,8.02
2019-04-04T21:07:27.799Z,7.95
2019-04-04T21:09:56.190Z,7.98
2019-04-04T21:12:24.606Z,8.05
2019-04-04T21:14:52.997Z,8.06
2019-04-04T21:17:21.389Z,8.07
2019-04-04T21:19:49.781Z,8.04
2019-04-04T21:22:27.339Z,8.02
2019-04-04T21:24:48.309Z,8.04
2019-04-04T21:27:18.766Z,8.07
2019-04-04T21:29:46.880Z,8.10
2019-04-04T21:32:15.281Z,8.11
2019-04-04T21:34:43.659Z,8.01
2019-04-04T21:37:12.074Z,7.97
2019-04-04T21:39:41.357Z,7.99
2019-04-04T21:42:09.761Z,8.03
2019-04-04T21:44:38.180Z,8.03
2019-04-04T21:47:06.535Z,8.01
2019-04-04T21:49:34.925Z,8.01
2019-04-04T21:52:03.332Z,7.97
2019-04-04T21:54:31.716Z,7.96
2019-04-04T21:57:00.140Z,7.96
2019-04-04T21:59:28.534Z,8.01
2019-04-04T22:01:57.042Z,8.08
2019-04-04T22:04:25.432Z,8.13
2019-04-04T22:06:53.844Z,8.15
2019-04-04T22:09:22.305Z,8.12
2019-04-04T22:11:50.765Z,8.07
2019-04-04T22:14:21.904Z,8.04
2019-04-04T22:16:49.286Z,7.99
2019-04-04T22:19:17.671Z,7.93
2019-04-04T22:21:46.054Z,7.93
2019-04-04T22:24:14.448Z,7.96
2019-04-04T22:26:42.858Z,7.95
2019-04-04T22:29:11.272Z,7.95
2019-04-04T22:31:39.669Z,7.95
2019-04-04T22:34:08.063Z,7.97
2019-04-04T22:36:36.475Z,7.97
2019-04-04T22:39:07.418Z,7.97
2019-04-04T22:41:35.806Z,7.95
2019-04-04T22:44:04.287Z,7.91
2019-04-04T22:46:32.680Z,7.88
2019-04-04T22:49:01.088Z,7.86
2019-04-04T22:51:29.499Z,7.85
2019-04-04T22:53:57.923Z,7.87
2019-04-04T22:56:26.333Z,7.87
2019-04-04T22:58:54.716Z,7.80
2019-04-04T23:01:23.105Z,7.75
2019-04-04T23:03:51.497Z,7.72
2019-04-04T23:06:19.959Z,7.71
2019-04-04T23:08:48.354Z,7.69
2019-04-04T23:11:16.745Z,7.69
2019-04-04T23:13:45.177Z,7.66
2019-04-04T23:16:13.631Z,7.62
2019-04-04T23:18:42.032Z,7.61
2019-04-04T23:21:10.421Z,7.63
2019-04-04T23:23:38.813Z,7.60
2019-04-04T23:26:07.197Z,7.53
2019-04-04T23:28:35.587Z,7.46
2019-04-04T23:31:03.977Z,7.47
2019-04-04T23:33:32.386Z,7.52
2019-04-04T23:36:00.792Z,7.55
2019-04-04T23:38:29.185Z,7.53
2019-04-04T23:40:57.579Z,7.49
2019-04-04T23:43:25.964Z,7.44
2019-04-04T23:45:54.351Z,7.44
2019-04-04T23:48:22.747Z,7.46
2019-04-04T23:50:51.135Z,7.43
2019-04-04T23:53:19.539Z,7.40
2019-04-04T23:55:47.939Z,7.39
2019-04-04T23:58:16.328Z,7.36
